createdAt,value
2024-03-06T00:00:39.775Z,11.38
2024-03-06T00:03:09.354Z,9.18
2024-03-06T00:05:38.980Z,15.50
2024-03-06T00:08:08.738Z,10.68
2024-03-06T00:10:38.572Z,9.00
2024-03-06T00:13:08.189Z,11.50
2024-03-06T00:15:37.775Z,8.05
2024-03-06T00:18:07.576Z,13.85
2024-03-06T00:20:38.210Z,12.05
2024-03-06T00:23:07.847Z,7.72
2024-03-06T00:25:37.587Z,9.45
2024-03-06T00:28:07.647Z,8.13
2024-03-06T00:30:37.177Z,8.70
2024-03-06T00:33:06.920Z,8.98
2024-03-06T00:35:36.468Z,5.55
2024-03-06T00:38:06.245Z,7.85
2024-03-06T00:40:35.949Z,5.17
2024-03-06T00:43:06.206Z,4.58
2024-03-06T00:45:35.883Z,7.33
2024-03-06T00:48:06.063Z,3.87
2024-03-06T00:50:36.587Z,3.62
2024-03-06T00:53:06.252Z,4.85
2024-03-06T00:55:35.916Z,6.40
2024-03-06T00:58:07.538Z,4.08
2024-03-06T01:00:37.204Z,1.87
2024-03-06T01:03:07.257Z,1.55
2024-03-06T01:05:36.851Z,1.20
2024-03-06T01:08:06.666Z,2.12
2024-03-06T01:10:36.913Z,0.50
2024-03-06T01:13:06.865Z,1.85
2024-03-06T01:15:36.404Z,3.08
2024-03-06T01:18:06.585Z,2.62
2024-03-06T01:20:36.135Z,2.65
2024-03-06T01:23:06.602Z,1.32
2024-03-06T01:25:36.586Z,1.30
2024-03-06T01:28:06.580Z,3.00
2024-03-06T01:30:36.130Z,1.32
2024-03-06T01:33:07.697Z,1.37
2024-03-06T01:35:37.573Z,1.40
2024-03-06T01:38:07.347Z,3.65
2024-03-06T01:40:37.037Z,0.93
2024-03-06T01:43:06.592Z,2.45
2024-03-06T01:45:36.218Z,3.55
2024-03-06T01:48:09.044Z,3.50
2024-03-06T01:53:07.527Z,0.93
2024-03-06T01:55:37.634Z,0.62
2024-03-06T01:58:07.307Z,2.67
2024-03-06T02:00:37.800Z,1.85
2024-03-06T02:03:07.734Z,2.37
2024-03-06T02:05:37.718Z,1.87
2024-03-06T02:08:09.103Z,1.62
2024-03-06T02:10:38.744Z,1.12
2024-03-06T02:13:08.464Z,2.27
2024-03-06T02:15:38.177Z,1.65
2024-03-06T02:18:10.089Z,1.65
2024-03-06T02:20:43.219Z,1.02
2024-03-06T02:23:12.937Z,4.22
2024-03-06T02:25:43.299Z,1.22
2024-03-06T02:28:12.864Z,1.42
2024-03-06T02:30:42.661Z,2.75
2024-03-06T02:33:12.419Z,2.00
2024-03-06T02:35:43.456Z,1.27
2024-03-06T02:38:14.132Z,4.58
2024-03-06T02:40:46.400Z,3.77
2024-03-06T02:43:18.103Z,2.53
2024-03-06T02:45:47.798Z,2.42
2024-03-06T02:48:17.391Z,1.50
2024-03-06T02:50:47.132Z,7.00
2024-03-06T02:53:16.853Z,1.82
2024-03-06T02:55:46.519Z,6.10
2024-03-06T02:58:17.840Z,3.08
2024-03-06T03:00:47.628Z,5.22
2024-03-06T03:03:17.300Z,3.40
2024-03-06T03:05:46.830Z,3.08
2024-03-06T03:08:17.488Z,2.92
2024-03-06T03:10:47.144Z,3.65
2024-03-06T03:13:16.774Z,1.95
2024-03-06T03:15:46.427Z,1.55
2024-03-06T03:18:16.089Z,4.62
2024-03-06T03:20:45.786Z,2.33
2024-03-06T03:25:45.981Z,1.90
2024-03-06T03:28:15.590Z,2.58
2024-03-06T03:30:48.413Z,2.70
2024-03-06T03:33:18.128Z,2.47
2024-03-06T03:35:47.699Z,2.37
2024-03-06T03:38:18.373Z,4.05
2024-03-06T03:40:48.039Z,6.08
2024-03-06T03:43:17.571Z,2.90
2024-03-06T03:45:47.240Z,3.52
2024-03-06T03:48:16.904Z,5.45
2024-03-06T03:50:46.943Z,2.90
2024-03-06T03:53:17.245Z,6.42
2024-03-06T03:55:46.897Z,3.62
2024-03-06T03:58:16.539Z,4.12
2024-03-06T04:00:46.136Z,3.25
2024-03-06T04:03:15.773Z,2.47
2024-03-06T04:05:45.306Z,1.52
2024-03-06T04:08:15.027Z,3.05
2024-03-06T04:10:47.133Z,3.80
2024-03-06T04:13:18.089Z,4.70
2024-03-06T04:15:48.451Z,5.20
2024-03-06T04:18:18.232Z,3.80
2024-03-06T04:20:48.034Z,2.33
2024-03-06T04:23:17.772Z,2.55
2024-03-06T04:25:47.623Z,4.30
2024-03-06T04:28:17.659Z,5.25
2024-03-06T04:30:47.223Z,3.77
2024-03-06T04:33:16.810Z,4.70
2024-03-06T04:35:46.587Z,5.17
2024-03-06T04:38:16.633Z,4.70
2024-03-06T04:40:46.396Z,3.70
2024-03-06T04:43:16.035Z,6.97
2024-03-06T04:45:45.634Z,2.65
2024-03-06T04:48:15.296Z,4.80
2024-03-06T04:50:46.033Z,4.22
2024-03-06T04:53:15.701Z,5.15
2024-03-06T04:55:45.415Z,3.52
2024-03-06T04:58:15.847Z,3.95
2024-03-06T05:00:45.391Z,6.22
2024-03-06T05:59:18.870Z,9.90
2024-03-06T06:01:48.621Z,8.35
2024-03-06T06:04:18.140Z,11.63
2024-03-06T06:06:47.702Z,12.37
2024-03-06T06:09:17.916Z,10.85
2024-03-06T06:11:48.805Z,5.72
2024-03-06T06:14:18.697Z,10.65
2024-03-06T06:16:48.307Z,7.10
2024-03-06T06:19:17.977Z,18.75
2024-03-06T06:21:48.994Z,31.68
2024-03-06T06:24:18.671Z,31.70
2024-03-06T06:26:48.758Z,20.08
2024-03-06T06:29:18.424Z,17.70
2024-03-06T06:31:48.145Z,14.50
2024-03-06T06:34:17.684Z,15.35
2024-03-06T06:36:50.242Z,17.80
2024-03-06T06:39:19.909Z,16.02
2024-03-06T06:41:49.543Z,16.62
2024-03-06T06:44:19.180Z,18.10
2024-03-06T06:46:48.827Z,17.77
2024-03-06T06:49:18.753Z,13.00
2024-03-06T06:51:49.443Z,9.83
2024-03-06T06:54:19.055Z,16.73
2024-03-06T06:56:48.605Z,12.40
2024-03-06T06:59:18.471Z,13.70
2024-03-06T07:01:49.225Z,18.67
2024-03-06T07:04:20.715Z,14.45
2024-03-06T07:06:50.401Z,21.30
2024-03-06T07:09:21.040Z,40.67
2024-03-06T07:11:52.279Z,36.23
2024-03-06T07:14:22.001Z,37.38
2024-03-06T07:16:51.762Z,23.12
2024-03-06T07:19:21.361Z,19.85
2024-03-06T07:21:50.925Z,18.02
2024-03-06T07:24:20.573Z,14.60
2024-03-06T07:26:50.222Z,21.93
2024-03-06T07:29:19.847Z,18.57
2024-03-06T07:31:49.724Z,16.87
2024-03-06T07:34:19.416Z,20.62
2024-03-06T07:36:49.502Z,16.52
2024-03-06T07:39:20.872Z,20.80
2024-03-06T07:41:50.648Z,20.88
2024-03-06T07:44:21.486Z,15.32
2024-03-06T07:46:51.238Z,18.95
2024-03-06T07:49:20.781Z,16.17
2024-03-06T07:51:53.180Z,20.68
2024-03-06T07:54:22.720Z,13.50
2024-03-06T07:56:52.548Z,22.60
2024-03-06T07:59:22.357Z,15.78
2024-03-06T08:01:52.021Z,16.65
2024-03-06T08:04:21.615Z,16.07
2024-03-06T08:06:51.279Z,19.42
2024-03-06T08:09:21.004Z,12.47
2024-03-06T08:11:50.820Z,22.62
2024-03-06T08:14:20.600Z,19.52
2024-03-06T08:16:50.554Z,15.85
2024-03-06T08:19:20.100Z,18.07
2024-03-06T08:21:49.705Z,17.57
2024-03-06T08:24:21.014Z,23.85
2024-03-06T08:26:50.543Z,13.38
2024-03-06T08:29:20.164Z,16.12
2024-03-06T08:31:49.731Z,17.37
2024-03-06T08:34:19.435Z,14.40
2024-03-06T08:36:49.138Z,18.07
2024-03-06T08:39:18.662Z,14.98
2024-03-06T08:41:48.269Z,15.95
2024-03-06T08:44:17.975Z,15.03
2024-03-06T08:46:47.740Z,13.62
2024-03-06T08:49:17.582Z,18.65
2024-03-06T08:51:47.177Z,18.32
2024-03-06T08:54:16.887Z,14.15
2024-03-06T08:56:46.553Z,17.70
2024-03-06T08:59:16.560Z,19.32
2024-03-06T09:01:46.413Z,19.17
2024-03-06T09:04:16.292Z,15.72
2024-03-06T09:06:47.845Z,28.80
2024-03-06T09:09:17.531Z,13.58
2024-03-06T09:11:47.081Z,21.50
2024-03-06T09:14:16.665Z,19.25
2024-03-06T09:16:46.309Z,14.05
2024-03-06T09:19:19.262Z,16.00
2024-03-06T09:21:47.131Z,19.80
2024-03-06T09:24:16.739Z,17.32
2024-03-06T09:26:47.097Z,20.35
2024-03-06T09:29:19.988Z,17.65
2024-03-06T09:31:49.885Z,12.70
2024-03-06T09:34:22.764Z,13.87
2024-03-06T09:36:52.602Z,23.30
2024-03-06T09:39:24.366Z,17.23
2024-03-06T09:41:57.076Z,9.80
2024-03-06T09:44:26.879Z,13.40
2024-03-06T09:46:58.963Z,18.42
2024-03-06T09:49:28.789Z,18.60
2024-03-06T09:52:00.261Z,19.17
2024-03-06T09:54:31.839Z,10.70
2024-03-06T09:57:01.616Z,22.50
2024-03-06T09:59:31.883Z,14.98
2024-03-06T10:02:07.391Z,20.82
2024-03-06T10:04:38.481Z,16.62
2024-03-06T10:07:09.255Z,15.55
2024-03-06T10:09:39.090Z,14.47
2024-03-06T10:12:08.908Z,9.80
2024-03-06T10:14:38.842Z,17.82
2024-03-06T10:17:08.561Z,18.55
2024-03-06T10:19:39.249Z,10.70
2024-03-06T10:22:09.830Z,12.60
2024-03-06T10:24:40.970Z,10.38
2024-03-06T10:27:12.110Z,12.70
2024-03-06T10:29:42.000Z,14.33
2024-03-06T10:32:12.469Z,15.38
2024-03-06T10:34:42.941Z,23.02
2024-03-06T10:37:12.485Z,13.22
2024-03-06T10:39:45.737Z,16.93
2024-03-06T10:42:16.575Z,11.68
2024-03-06T10:44:49.216Z,15.40
2024-03-06T10:47:20.614Z,12.70
2024-03-06T10:49:50.629Z,13.30
2024-03-06T10:52:21.435Z,12.33
2024-03-06T10:54:51.411Z,13.22
2024-03-06T10:57:22.191Z,18.27
2024-03-06T10:59:52.504Z,10.90
2024-03-06T11:02:24.852Z,12.80
2024-03-06T11:04:55.418Z,10.90
2024-03-06T11:07:25.117Z,12.30
2024-03-06T11:09:54.710Z,14.73
2024-03-06T11:12:41.442Z,15.45
2024-03-06T11:15:13.353Z,13.32
2024-03-06T11:17:43.116Z,13.10
2024-03-06T11:20:21.019Z,12.13
2024-03-06T11:23:12.402Z,18.37
2024-03-06T11:25:59.100Z,14.53
2024-03-06T11:28:31.331Z,11.15
2024-03-06T11:31:06.703Z,10.47
2024-03-06T11:33:44.103Z,14.95
2024-03-06T11:36:30.550Z,13.38
2024-03-06T11:39:02.679Z,14.00
2024-03-06T11:41:47.227Z,10.33
2024-03-06T11:44:25.462Z,19.00
2024-03-06T11:47:10.452Z,9.90
2024-03-06T11:49:41.866Z,12.73
2024-03-06T11:52:11.788Z,12.95
2024-03-06T11:54:41.370Z,14.28
2024-03-06T11:57:12.613Z,13.60
2024-03-06T11:59:42.312Z,12.20
2024-03-06T12:02:12.430Z,12.73
2024-03-06T12:04:43.302Z,11.88
2024-03-06T12:07:12.990Z,17.15
2024-03-06T12:09:44.025Z,11.93
2024-03-06T12:12:14.302Z,13.58
2024-03-06T12:14:44.249Z,14.75
2024-03-06T12:17:17.312Z,11.40
2024-03-06T12:19:47.310Z,12.35
2024-03-06T12:22:17.299Z,15.08
2024-03-06T12:24:47.405Z,18.65
2024-03-06T12:27:16.930Z,13.18
2024-03-06T12:29:47.971Z,12.60
2024-03-06T12:32:21.589Z,10.58
2024-03-06T12:35:01.942Z,14.10
2024-03-06T12:37:33.898Z,10.90
2024-03-06T12:40:09.282Z,9.60
2024-03-06T12:42:38.792Z,12.93
2024-03-06T12:45:09.925Z,10.45
2024-03-06T12:47:39.668Z,15.08
2024-03-06T12:50:09.845Z,13.03
2024-03-06T12:52:39.910Z,12.13
2024-03-06T12:55:09.732Z,11.78
2024-03-06T12:57:39.326Z,14.23
2024-03-06T13:00:11.486Z,14.95
2024-03-06T13:02:41.153Z,10.77
2024-03-06T13:05:10.795Z,7.58
2024-03-06T13:07:40.824Z,11.90
2024-03-06T13:10:11.599Z,10.00
2024-03-06T13:12:41.549Z,10.95
2024-03-06T13:15:11.347Z,9.88
2024-03-06T13:17:41.132Z,9.68
2024-03-06T13:20:14.855Z,14.30
2024-03-06T13:22:45.392Z,10.70
2024-03-06T13:25:14.954Z,6.35
2024-03-06T13:27:44.665Z,13.58
2024-03-06T13:30:14.746Z,10.05
2024-03-06T13:32:44.859Z,14.07
2024-03-06T13:35:16.257Z,11.53
2024-03-06T13:37:46.292Z,11.97
2024-03-06T13:40:16.241Z,17.75
2024-03-06T13:42:46.500Z,11.83
2024-03-06T13:45:16.306Z,12.82
2024-03-06T13:47:46.847Z,15.58
2024-03-06T13:50:18.442Z,11.05
2024-03-06T13:52:48.130Z,8.68
2024-03-06T13:55:19.254Z,11.45
2024-03-06T13:57:48.850Z,9.65
2024-03-06T14:00:19.801Z,9.55
2024-03-06T14:02:50.858Z,10.25
2024-03-06T14:05:22.180Z,6.95
2024-03-06T14:07:52.540Z,10.88
2024-03-06T14:10:22.906Z,15.30
2024-03-06T14:12:53.656Z,24.57
2024-03-06T14:15:24.917Z,9.78
2024-03-06T14:17:55.784Z,12.03
2024-03-06T14:20:25.863Z,6.05
2024-03-06T14:22:55.925Z,4.92
2024-03-06T14:25:25.665Z,12.18
2024-03-06T14:27:55.339Z,11.18
2024-03-06T14:30:25.028Z,9.78
2024-03-06T14:32:54.802Z,5.95
2024-03-06T14:35:24.802Z,7.70
2024-03-06T14:37:57.689Z,11.00
2024-03-06T14:40:28.127Z,12.50
2024-03-06T14:42:57.686Z,8.48
2024-03-06T14:45:27.252Z,10.80
2024-03-06T14:47:56.946Z,8.28
2024-03-06T14:50:26.658Z,9.78
2024-03-06T14:52:56.232Z,14.47
2024-03-06T14:55:26.328Z,10.28
2024-03-06T14:57:56.336Z,10.13
2024-03-06T15:00:25.916Z,10.05
2024-03-06T15:02:57.162Z,14.47
2024-03-06T15:05:26.899Z,13.53
2024-03-06T15:07:56.499Z,7.08
2024-03-06T15:10:26.215Z,8.00
2024-03-06T15:12:57.689Z,8.33
2024-03-06T15:15:27.701Z,7.72
2024-03-06T15:17:57.544Z,12.23
2024-03-06T15:20:28.773Z,10.15
2024-03-06T15:22:58.570Z,13.17
2024-03-06T15:25:29.068Z,10.45
2024-03-06T15:27:58.589Z,7.72
2024-03-06T15:30:29.801Z,9.55
2024-03-06T15:32:59.756Z,12.35
2024-03-06T15:35:29.536Z,6.42
2024-03-06T15:37:59.108Z,9.20
2024-03-06T15:40:29.067Z,18.10
2024-03-06T15:42:58.585Z,12.55
2024-03-06T15:45:28.246Z,9.60
2024-03-06T15:47:58.073Z,12.35
2024-03-06T15:50:27.782Z,5.20
2024-03-06T15:52:57.433Z,9.85
2024-03-06T15:55:27.033Z,6.45
2024-03-06T15:57:57.043Z,8.40
2024-03-06T16:00:26.635Z,11.78
2024-03-06T16:02:56.470Z,13.72
2024-03-06T16:05:27.538Z,10.63
2024-03-06T16:08:05.145Z,6.05
2024-03-06T16:10:34.974Z,9.93
2024-03-06T16:13:04.714Z,10.65
2024-03-06T16:15:34.234Z,14.28
2024-03-06T16:18:03.999Z,7.55
2024-03-06T16:20:33.725Z,9.30
2024-03-06T16:23:03.416Z,8.90
2024-03-06T16:25:33.454Z,10.70
2024-03-06T16:28:02.968Z,11.68
2024-03-06T16:30:34.159Z,15.95
2024-03-06T16:33:03.951Z,12.70
2024-03-06T16:35:33.620Z,7.30
2024-03-06T16:38:03.321Z,11.30
2024-03-06T16:40:32.921Z,8.35
2024-03-06T16:43:02.535Z,7.67
2024-03-06T16:45:32.170Z,9.70
2024-03-06T16:48:02.182Z,10.05
2024-03-06T16:50:32.205Z,11.80
2024-03-06T16:53:01.900Z,13.10
2024-03-06T16:55:31.808Z,11.53
2024-03-06T16:58:01.593Z,7.65
2024-03-06T17:00:31.101Z,13.25
2024-03-06T17:03:02.975Z,6.58
2024-03-06T17:05:32.664Z,14.13
2024-03-06T17:08:04.239Z,8.95
2024-03-06T17:10:34.038Z,10.08
2024-03-06T17:13:04.243Z,10.35
2024-03-06T17:15:33.771Z,8.95
2024-03-06T17:18:03.644Z,8.78
2024-03-06T17:20:33.644Z,11.15
2024-03-06T17:23:04.829Z,8.98
2024-03-06T17:25:35.745Z,8.88
2024-03-06T17:28:06.379Z,7.58
2024-03-06T17:30:36.453Z,12.13
2024-03-06T17:33:06.595Z,8.00
2024-03-06T17:35:36.258Z,8.48
2024-03-06T17:38:05.991Z,9.00
2024-03-06T17:40:35.745Z,5.28
2024-03-06T17:43:06.003Z,8.03
2024-03-06T17:45:36.403Z,5.62
2024-03-06T17:48:06.958Z,7.30
2024-03-06T17:50:38.169Z,10.70
2024-03-06T17:53:09.682Z,5.42
2024-03-06T17:55:43.689Z,12.53
2024-03-06T17:58:13.444Z,14.18
2024-03-06T18:00:43.182Z,8.50
2024-03-06T18:03:12.688Z,4.35
2024-03-06T18:05:42.327Z,9.43
2024-03-06T18:08:12.079Z,4.22
2024-03-06T18:10:41.794Z,14.55
2024-03-06T18:13:11.544Z,20.00
2024-03-06T18:15:41.094Z,11.73
2024-03-06T18:18:10.650Z,15.05
2024-03-06T18:20:40.363Z,34.63
2024-03-06T18:23:11.761Z,10.10
2024-03-06T18:25:41.655Z,8.95
2024-03-06T18:28:11.184Z,10.00
2024-03-06T18:30:40.720Z,11.43
2024-03-06T18:33:10.287Z,9.43
2024-03-06T18:35:40.034Z,10.28
2024-03-06T18:38:09.622Z,10.68
2024-03-06T18:40:39.295Z,12.03
2024-03-06T18:43:09.920Z,11.83
2024-03-06T18:45:39.582Z,11.18
2024-03-06T18:48:09.416Z,6.97
2024-03-06T18:50:39.504Z,12.95
2024-03-06T18:53:09.306Z,13.10
2024-03-06T18:55:38.911Z,8.75
2024-03-06T18:58:08.445Z,7.60
2024-03-06T19:00:38.162Z,11.03
2024-03-06T19:03:07.726Z,9.93
2024-03-06T19:05:37.448Z,12.15
2024-03-06T19:08:07.660Z,16.48
2024-03-06T19:10:37.404Z,11.90
2024-03-06T19:13:09.179Z,11.75
2024-03-06T19:15:38.743Z,10.37
2024-03-06T19:18:09.674Z,8.88
2024-03-06T19:20:39.873Z,10.13
2024-03-06T19:23:09.750Z,16.87
2024-03-06T19:25:39.514Z,17.67
2024-03-06T19:28:09.215Z,15.45
2024-03-06T19:30:38.797Z,12.75
2024-03-06T19:33:08.357Z,13.10
2024-03-06T19:35:38.145Z,16.00
2024-03-06T19:38:09.389Z,16.23
2024-03-06T19:40:38.998Z,17.82
2024-03-06T19:43:08.653Z,14.65
2024-03-06T19:45:38.243Z,9.98
2024-03-06T19:48:08.193Z,9.40
2024-03-06T19:50:38.875Z,16.75
2024-03-06T19:53:08.812Z,18.98
2024-03-06T19:55:38.831Z,16.95
2024-03-06T19:58:09.545Z,24.60
2024-03-06T20:00:39.218Z,29.35
2024-03-06T20:03:09.091Z,25.77
2024-03-06T20:05:38.706Z,21.02
2024-03-06T20:08:08.930Z,15.85
2024-03-06T20:10:39.274Z,21.48
2024-03-06T20:13:08.804Z,14.28
2024-03-06T20:15:39.002Z,14.85
2024-03-06T20:18:08.961Z,20.45
2024-03-06T20:20:38.898Z,15.43
2024-03-06T20:23:10.632Z,24.07
2024-03-06T20:25:42.843Z,22.10
2024-03-06T20:30:45.632Z,24.98
2024-03-06T20:33:15.298Z,19.87
2024-03-06T20:35:45.172Z,16.50
2024-03-06T20:38:18.137Z,21.50
2024-03-06T20:40:46.168Z,25.23
2024-03-06T20:43:16.193Z,19.52
2024-03-06T20:45:45.962Z,21.90
2024-03-06T20:48:15.809Z,19.00
2024-03-06T20:50:46.010Z,25.60
2024-03-06T20:53:15.704Z,28.47
2024-03-06T20:55:46.949Z,40.33
2024-03-06T20:58:17.981Z,33.73
2024-03-06T21:00:49.704Z,29.45
2024-03-06T21:03:19.426Z,31.45
2024-03-06T21:05:50.600Z,32.17
2024-03-06T21:08:20.356Z,30.70
2024-03-06T21:10:50.147Z,22.02
2024-03-06T21:13:19.741Z,19.32
2024-03-06T21:15:49.265Z,17.32
2024-03-06T21:18:18.826Z,14.50
2024-03-06T21:20:48.484Z,14.38
2024-03-06T21:23:18.236Z,16.37
2024-03-06T21:25:47.973Z,16.20
2024-03-06T21:28:17.563Z,9.25
2024-03-06T21:30:47.073Z,12.78
2024-03-06T21:33:17.627Z,11.67
2024-03-06T21:35:47.647Z,8.48
2024-03-06T21:38:17.523Z,10.93
2024-03-06T21:40:47.279Z,9.10
2024-03-06T21:43:16.889Z,10.63
2024-03-06T21:45:46.455Z,12.13
2024-03-06T21:48:16.225Z,10.90
2024-03-06T21:50:46.065Z,14.55
2024-03-06T21:53:15.631Z,15.50
2024-03-06T21:55:45.600Z,12.18
2024-03-06T21:58:16.471Z,10.35
2024-03-06T22:00:46.440Z,14.10
2024-03-06T22:03:16.049Z,11.50
2024-03-06T22:05:45.926Z,10.45
2024-03-06T22:08:15.755Z,17.10
2024-03-06T22:10:46.383Z,15.78
2024-03-06T22:13:16.338Z,16.27
2024-03-06T22:15:45.900Z,18.70
2024-03-06T22:18:15.525Z,17.80
2024-03-06T22:20:45.364Z,19.07
2024-03-06T22:23:15.134Z,20.05
2024-03-06T22:25:44.710Z,16.75
2024-03-06T22:28:14.511Z,21.15
2024-03-06T22:30:46.532Z,17.57
2024-03-06T22:33:16.630Z,24.23
2024-03-06T22:35:46.465Z,17.37
2024-03-06T22:38:16.239Z,22.20
2024-03-06T22:40:46.074Z,22.85
2024-03-06T22:43:15.744Z,20.10
2024-03-06T22:45:45.263Z,17.50
2024-03-06T22:48:15.160Z,21.35
2024-03-06T22:50:45.058Z,20.65
2024-03-06T22:53:14.883Z,17.60
2024-03-06T22:55:44.618Z,22.27
2024-03-06T22:58:14.189Z,19.23
2024-03-06T23:00:45.242Z,21.30
2024-03-06T23:03:14.946Z,15.75
2024-03-06T23:05:47.880Z,21.50
2024-03-06T23:08:17.888Z,19.48
2024-03-06T23:10:47.528Z,25.97
2024-03-06T23:13:17.286Z,22.67
2024-03-06T23:15:47.431Z,20.45
2024-03-06T23:18:17.229Z,22.35
2024-03-06T23:20:46.943Z,22.00
2024-03-06T23:23:16.662Z,20.82
2024-03-06T23:25:46.368Z,18.73
2024-03-06T23:28:15.915Z,22.67
2024-03-06T23:30:45.855Z,17.00
2024-03-06T23:33:16.228Z,21.25
2024-03-06T23:35:45.932Z,21.55
2024-03-06T23:38:15.635Z,22.93
2024-03-06T23:40:45.181Z,15.63
2024-03-06T23:43:15.246Z,17.82
2024-03-06T23:45:45.552Z,17.87
2024-03-06T23:48:15.201Z,19.30
2024-03-06T23:50:45.197Z,19.20
2024-03-06T23:53:16.094Z,15.25
2024-03-06T23:55:45.912Z,19.35
2024-03-06T23:58:18.628Z,17.00
